TimeEST,TemperatureF,Dew PointF,Humidity,Sea Level PressureIn,VisibilityMPH,Wind Direction,Wind SpeedMPH,Gust SpeedMPH,PrecipitationIn,Events,Conditions,WindDirDegrees,DateUTC
12:51 AM,7.0,-7.1,53,30.04,10.0,West,4.6,-,N/A,,Clear,260,2013-01-23 05:51:00
1:51 AM,6.1,-6.0,58,30.04,10.0,West,6.9,-,N/A,,Clear,280,2013-01-23 06:51:00
2:51 AM,3.9,-7.1,60,30.04,10.0,WNW,8.1,-,N/A,,Clear,290,2013-01-23 07:51:00
3:51 AM,3.9,-9.0,55,30.04,10.0,WNW,10.4,-,N/A,,Clear,300,2013-01-23 08:51:00
4:51 AM,3.0,-11.0,52,30.06,10.0,WNW,10.4,-,N/A,,Clear,290,2013-01-23 09:51:00
5:51 AM,1.9,-13.0,50,30.08,10.0,WNW,11.5,-,N/A,,Clear,290,2013-01-23 10:51:00
6:51 AM,1.0,-13.0,52,30.09,10.0,WNW,11.5,-,N/A,,Clear,290,2013-01-23 11:51:00
7:51 AM,1.0,-13.0,52,30.10,10.0,WNW,6.9,-,N/A,,Clear,290,2013-01-23 12:51:00
8:51 AM,1.9,-15.0,45,30.11,10.0,WNW,11.5,-,N/A,,Clear,300,2013-01-23 13:51:00
9:51 AM,3.0,-15.0,43,30.10,10.0,West,17.3,29.9,N/A,,Clear,280,2013-01-23 14:51:00
10:51 AM,3.9,-16.1,39,30.08,10.0,WNW,25.3,-,N/A,,Clear,290,2013-01-23 15:51:00
11:51 AM,5.0,-16.1,37,30.08,10.0,NW,18.4,26.5,N/A,,Clear,320,2013-01-23 16:51:00
12:51 PM,7.0,-16.1,34,30.06,10.0,WNW,17.3,21.9,N/A,,Clear,300,2013-01-23 17:51:00
1:51 PM,8.1,-16.1,33,30.05,10.0,WNW,12.7,23.0,N/A,,Clear,300,2013-01-23 18:51:00
2:51 PM,8.6,-16.6,31,30.05,10.0,West,16.1,21.9,N/A,,Clear,270,2013-01-23 19:51:00
3:51 PM,7.0,-16.1,34,30.06,10.0,West,9.2,-,N/A,,Clear,280,2013-01-23 20:51:00
4:51 PM,6.1,-16.1,36,30.07,10.0,West,10.4,-,N/A,,Clear,270,2013-01-23 21:51:00
5:51 PM,3.9,-15.0,41,30.08,10.0,West,6.9,-,N/A,,Clear,280,2013-01-23 22:51:00
6:51 PM,3.9,-16.1,39,30.09,10.0,West,9.2,-,N/A,,Clear,260,2013-01-23 23:51:00
7:51 PM,3.0,-17.0,39,30.09,10.0,West,6.9,-,N/A,,Clear,270,2013-01-24 00:51:00
8:51 PM,1.9,-16.1,43,30.09,10.0,West,5.8,-,N/A,,Clear,280,2013-01-24 01:51:00
9:51 PM,1.0,-16.1,45,30.08,10.0,West,8.1,-,N/A,,Clear,260,2013-01-24 02:51:00
10:51 PM,1.0,-15.0,47,30.08,10.0,West,5.8,-,N/A,,Clear,270,2013-01-24 03:51:00
11:51 PM,-0.0,-15.0,49,30.07,10.0,WSW,4.6,-,N/A,,Clear,250,2013-01-24 04:51:00